sensor_id;sensor_type;location;lat;lon;timestamp;P1;durP1;ratioP1;P2;durP2;ratioP2
2772;SDS011;1394;47.044;15.744;2022-12-18T00:02:24;37.07;;;6.97;;
2772;SDS011;1394;47.044;15.744;2022-12-18T00:04:51;28.20;;;5.17;;
2772;SDS011;1394;47.044;15.744;2022-12-18T00:07:19;27.50;;;4.80;;
2772;SDS011;1394;47.044;15.744;2022-12-18T00:09:46;27.37;;;4.93;;
2772;SDS011;1394;47.044;15.744;2022-12-18T00:12:14;27.10;;;4.13;;
2772;SDS011;1394;47.044;15.744;2022-12-18T00:14:41;27.77;;;4.60;;
2772;SDS011;1394;47.044;15.744;2022-12-18T00:17:12;27.10;;;4.23;;
2772;SDS011;1394;47.044;15.744;2022-12-18T00:19:39;27.97;;;4.53;;
2772;SDS011;1394;47.044;15.744;2022-12-18T00:22:07;27.50;;;4.73;;
2772;SDS011;1394;47.044;15.744;2022-12-18T00:24:34;26.70;;;3.70;;
2772;SDS011;1394;47.044;15.744;2022-12-18T00:27:01;27.27;;;4.50;;
2772;SDS011;1394;47.044;15.744;2022-12-18T00:29:28;27.83;;;4.90;;
2772;SDS011;1394;47.044;15.744;2022-12-18T00:31:55;27.80;;;5.10;;
2772;SDS011;1394;47.044;15.744;2022-12-18T00:34:24;29.50;;;6.03;;
2772;SDS011;1394;47.044;15.744;2022-12-18T00:36:51;29.20;;;6.20;;
2772;SDS011;1394;47.044;15.744;2022-12-18T00:39:18;29.40;;;6.27;;
2772;SDS011;1394;47.044;15.744;2022-12-18T00:41:46;30.20;;;6.27;;
2772;SDS011;1394;47.044;15.744;2022-12-18T00:44:30;31.83;;;7.20;;
2772;SDS011;1394;47.044;15.744;2022-12-18T00:46:58;33.33;;;8.30;;
2772;SDS011;1394;47.044;15.744;2022-12-18T00:49:27;33.90;;;9.13;;
2772;SDS011;1394;47.044;15.744;2022-12-18T00:51:55;32.50;;;8.20;;
2772;SDS011;1394;47.044;15.744;2022-12-18T00:54:22;31.40;;;7.50;;
2772;SDS011;1394;47.044;15.744;2022-12-18T00:56:49;30.43;;;6.73;;
2772;SDS011;1394;47.044;15.744;2022-12-18T00:59:17;29.40;;;6.07;;
2772;SDS011;1394;47.044;15.744;2022-12-18T01:01:44;32.00;;;7.73;;
2772;SDS011;1394;47.044;15.744;2022-12-18T01:04:11;29.50;;;6.00;;
2772;SDS011;1394;47.044;15.744;2022-12-18T01:06:40;29.17;;;6.30;;
2772;SDS011;1394;47.044;15.744;2022-12-18T01:09:08;30.83;;;7.07;;
2772;SDS011;1394;47.044;15.744;2022-12-18T01:11:36;33.07;;;8.37;;
2772;SDS011;1394;47.044;15.744;2022-12-18T01:14:03;29.20;;;6.50;;
2772;SDS011;1394;47.044;15.744;2022-12-18T01:16:30;29.13;;;6.40;;
2772;SDS011;1394;47.044;15.744;2022-12-18T01:18:58;28.97;;;6.60;;
2772;SDS011;1394;47.044;15.744;2022-12-18T01:21:26;30.47;;;6.50;;
2772;SDS011;1394;47.044;15.744;2022-12-18T01:23:54;28.47;;;6.00;;
2772;SDS011;1394;47.044;15.744;2022-12-18T01:26:23;28.40;;;5.90;;
2772;SDS011;1394;47.044;15.744;2022-12-18T01:28:50;28.67;;;5.73;;
2772;SDS011;1394;47.044;15.744;2022-12-18T01:31:18;28.20;;;5.27;;
2772;SDS011;1394;47.044;15.744;2022-12-18T01:33:46;30.50;;;6.63;;
2772;SDS011;1394;47.044;15.744;2022-12-18T01:36:17;28.80;;;5.93;;
2772;SDS011;1394;47.044;15.744;2022-12-18T01:38:45;30.67;;;7.10;;
2772;SDS011;1394;47.044;15.744;2022-12-18T01:41:14;30.90;;;7.67;;
2772;SDS011;1394;47.044;15.744;2022-12-18T01:43:42;30.50;;;6.90;;
2772;SDS011;1394;47.044;15.744;2022-12-18T01:46:11;29.60;;;7.10;;
2772;SDS011;1394;47.044;15.744;2022-12-18T01:48:39;28.33;;;5.83;;
2772;SDS011;1394;47.044;15.744;2022-12-18T01:51:07;33.90;;;8.10;;
2772;SDS011;1394;47.044;15.744;2022-12-18T01:53:35;29.50;;;6.60;;
2772;SDS011;1394;47.044;15.744;2022-12-18T01:56:03;35.57;;;7.57;;
2772;SDS011;1394;47.044;15.744;2022-12-18T01:58:32;28.60;;;5.77;;
2772;SDS011;1394;47.044;15.744;2022-12-18T02:01:02;34.97;;;8.03;;
2772;SDS011;1394;47.044;15.744;2022-12-18T02:03:29;33.70;;;6.00;;
2772;SDS011;1394;47.044;15.744;2022-12-18T02:05:59;29.03;;;6.03;;
2772;SDS011;1394;47.044;15.744;2022-12-18T02:08:30;28.50;;;5.23;;
2772;SDS011;1394;47.044;15.744;2022-12-18T02:11:02;29.20;;;5.83;;
2772;SDS011;1394;47.044;15.744;2022-12-18T02:13:36;32.70;;;7.50;;
2772;SDS011;1394;47.044;15.744;2022-12-18T02:16:05;31.43;;;7.27;;
2772;SDS011;1394;47.044;15.744;2022-12-18T02:18:38;30.30;;;6.80;;
2772;SDS011;1394;47.044;15.744;2022-12-18T02:21:09;31.17;;;7.37;;
2772;SDS011;1394;47.044;15.744;2022-12-18T02:23:44;30.30;;;6.90;;
2772;SDS011;1394;47.044;15.744;2022-12-18T02:26:15;29.30;;;6.40;;
2772;SDS011;1394;47.044;15.744;2022-12-18T02:28:45;31.00;;;7.30;;
2772;SDS011;1394;47.044;15.744;2022-12-18T02:31:14;28.90;;;6.00;;
2772;SDS011;1394;47.044;15.744;2022-12-18T02:33:42;29.27;;;6.73;;
2772;SDS011;1394;47.044;15.744;2022-12-18T02:36:10;28.83;;;6.00;;
2772;SDS011;1394;47.044;15.744;2022-12-18T02:38:38;29.00;;;6.10;;
2772;SDS011;1394;47.044;15.744;2022-12-18T02:41:27;28.83;;;5.87;;
2772;SDS011;1394;47.044;15.744;2022-12-18T02:43:56;28.20;;;5.23;;
2772;SDS011;1394;47.044;15.744;2022-12-18T02:46:25;28.70;;;5.37;;
2772;SDS011;1394;47.044;15.744;2022-12-18T02:48:53;27.80;;;5.20;;
2772;SDS011;1394;47.044;15.744;2022-12-18T02:51:24;29.50;;;6.03;;
2772;SDS011;1394;47.044;15.744;2022-12-18T02:53:53;33.33;;;8.27;;
2772;SDS011;1394;47.044;15.744;2022-12-18T02:56:28;29.13;;;5.80;;
2772;SDS011;1394;47.044;15.744;2022-12-18T02:58:58;28.90;;;6.43;;
2772;SDS011;1394;47.044;15.744;2022-12-18T03:01:28;29.23;;;6.90;;
2772;SDS011;1394;47.044;15.744;2022-12-18T03:03:59;33.43;;;8.87;;
2772;SDS011;1394;47.044;15.744;2022-12-18T03:06:29;32.40;;;7.87;;
2772;SDS011;1394;47.044;15.744;2022-12-18T03:08:58;50.73;;;9.73;;
2772;SDS011;1394;47.044;15.744;2022-12-18T03:11:28;30.87;;;7.17;;
2772;SDS011;1394;47.044;15.744;2022-12-18T03:14:15;32.07;;;7.90;;
2772;SDS011;1394;47.044;15.744;2022-12-18T03:16:42;29.40;;;6.20;;
2772;SDS011;1394;47.044;15.744;2022-12-18T03:19:11;29.80;;;6.07;;
2772;SDS011;1394;47.044;15.744;2022-12-18T03:21:42;31.07;;;7.10;;
2772;SDS011;1394;47.044;15.744;2022-12-18T03:24:10;30.43;;;6.83;;
2772;SDS011;1394;47.044;15.744;2022-12-18T03:26:40;29.47;;;6.30;;
2772;SDS011;1394;47.044;15.744;2022-12-18T03:29:12;29.60;;;6.40;;
2772;SDS011;1394;47.044;15.744;2022-12-18T03:31:42;28.50;;;5.57;;
2772;SDS011;1394;47.044;15.744;2022-12-18T03:34:13;28.17;;;5.63;;
2772;SDS011;1394;47.044;15.744;2022-12-18T03:36:45;27.80;;;4.40;;
2772;SDS011;1394;47.044;15.744;2022-12-18T03:39:13;27.57;;;4.80;;
2772;SDS011;1394;47.044;15.744;2022-12-18T03:41:43;26.90;;;3.57;;
2772;SDS011;1394;47.044;15.744;2022-12-18T03:44:12;26.50;;;3.20;;
2772;SDS011;1394;47.044;15.744;2022-12-18T03:46:41;27.00;;;3.47;;
2772;SDS011;1394;47.044;15.744;2022-12-18T03:49:14;25.83;;;3.13;;
2772;SDS011;1394;47.044;15.744;2022-12-18T03:51:45;26.60;;;3.40;;
2772;SDS011;1394;47.044;15.744;2022-12-18T03:54:18;26.10;;;2.87;;
2772;SDS011;1394;47.044;15.744;2022-12-18T03:56:48;26.20;;;3.03;;
2772;SDS011;1394;47.044;15.744;2022-12-18T03:59:16;25.93;;;2.90;;
2772;SDS011;1394;47.044;15.744;2022-12-18T04:01:45;25.70;;;2.70;;
2772;SDS011;1394;47.044;15.744;2022-12-18T04:04:13;26.40;;;3.40;;
2772;SDS011;1394;47.044;15.744;2022-12-18T04:06:42;27.40;;;3.40;;
2772;SDS011;1394;47.044;15.744;2022-12-18T04:09:10;27.40;;;4.10;;
2772;SDS011;1394;47.044;15.744;2022-12-18T04:11:37;27.23;;;4.27;;
2772;SDS011;1394;47.044;15.744;2022-12-18T04:14:06;28.23;;;4.83;;
2772;SDS011;1394;47.044;15.744;2022-12-18T04:16:36;28.40;;;5.60;;
2772;SDS011;1394;47.044;15.744;2022-12-18T04:19:03;28.57;;;5.70;;
2772;SDS011;1394;47.044;15.744;2022-12-18T04:21:30;28.40;;;5.77;;
2772;SDS011;1394;47.044;15.744;2022-12-18T04:23:58;28.00;;;4.80;;
2772;SDS011;1394;47.044;15.744;2022-12-18T04:26:25;28.07;;;4.33;;
2772;SDS011;1394;47.044;15.744;2022-12-18T04:28:52;27.47;;;4.43;;
2772;SDS011;1394;47.044;15.744;2022-12-18T04:31:23;27.50;;;5.07;;
2772;SDS011;1394;47.044;15.744;2022-12-18T04:33:51;27.70;;;3.93;;
2772;SDS011;1394;47.044;15.744;2022-12-18T04:36:19;26.93;;;4.07;;
2772;SDS011;1394;47.044;15.744;2022-12-18T04:38:46;28.00;;;4.80;;
2772;SDS011;1394;47.044;15.744;2022-12-18T04:41:13;27.57;;;4.50;;
2772;SDS011;1394;47.044;15.744;2022-12-18T04:43:40;27.07;;;4.00;;
2772;SDS011;1394;47.044;15.744;2022-12-18T04:46:08;27.63;;;4.60;;
2772;SDS011;1394;47.044;15.744;2022-12-18T04:48:36;27.73;;;4.47;;
2772;SDS011;1394;47.044;15.744;2022-12-18T04:51:05;27.63;;;4.33;;
2772;SDS011;1394;47.044;15.744;2022-12-18T04:53:36;26.90;;;4.07;;
2772;SDS011;1394;47.044;15.744;2022-12-18T04:56:05;27.90;;;4.50;;
2772;SDS011;1394;47.044;15.744;2022-12-18T04:58:33;27.50;;;4.40;;
2772;SDS011;1394;47.044;15.744;2022-12-18T05:01:01;27.50;;;4.47;;
2772;SDS011;1394;47.044;15.744;2022-12-18T05:03:28;27.40;;;4.20;;
2772;SDS011;1394;47.044;15.744;2022-12-18T05:06:00;26.47;;;3.73;;
2772;SDS011;1394;47.044;15.744;2022-12-18T05:08:28;26.90;;;3.87;;
2772;SDS011;1394;47.044;15.744;2022-12-18T05:10:59;26.80;;;4.10;;
2772;SDS011;1394;47.044;15.744;2022-12-18T05:13:26;26.80;;;4.13;;
2772;SDS011;1394;47.044;15.744;2022-12-18T05:15:54;27.40;;;4.47;;
2772;SDS011;1394;47.044;15.744;2022-12-18T05:18:22;27.57;;;4.47;;
2772;SDS011;1394;47.044;15.744;2022-12-18T05:20:52;28.47;;;5.53;;
2772;SDS011;1394;47.044;15.744;2022-12-18T05:23:21;28.17;;;4.87;;
2772;SDS011;1394;47.044;15.744;2022-12-18T05:25:50;28.27;;;4.70;;
2772;SDS011;1394;47.044;15.744;2022-12-18T05:28:18;27.93;;;4.83;;
2772;SDS011;1394;47.044;15.744;2022-12-18T05:30:47;28.80;;;5.23;;
2772;SDS011;1394;47.044;15.744;2022-12-18T05:33:16;27.57;;;4.70;;
2772;SDS011;1394;47.044;15.744;2022-12-18T05:35:43;28.20;;;4.60;;
2772;SDS011;1394;47.044;15.744;2022-12-18T05:38:10;28.80;;;5.97;;
2772;SDS011;1394;47.044;15.744;2022-12-18T05:40:42;29.83;;;5.90;;
2772;SDS011;1394;47.044;15.744;2022-12-18T05:43:10;30.07;;;5.90;;
2772;SDS011;1394;47.044;15.744;2022-12-18T05:45:37;28.47;;;5.70;;
2772;SDS011;1394;47.044;15.744;2022-12-18T05:48:05;27.57;;;4.80;;
2772;SDS011;1394;47.044;15.744;2022-12-18T05:50:33;28.00;;;5.17;;
2772;SDS011;1394;47.044;15.744;2022-12-18T05:53:02;29.03;;;5.80;;
2772;SDS011;1394;47.044;15.744;2022-12-18T05:55:29;28.17;;;4.90;;
2772;SDS011;1394;47.044;15.744;2022-12-18T05:58:01;28.30;;;5.50;;
2772;SDS011;1394;47.044;15.744;2022-12-18T06:00:29;28.93;;;5.40;;
2772;SDS011;1394;47.044;15.744;2022-12-18T06:02:57;28.20;;;5.30;;
2772;SDS011;1394;47.044;15.744;2022-12-18T06:05:24;28.60;;;5.73;;
2772;SDS011;1394;47.044;15.744;2022-12-18T06:07:51;28.20;;;5.13;;
2772;SDS011;1394;47.044;15.744;2022-12-18T06:10:19;29.83;;;6.27;;
2772;SDS011;1394;47.044;15.744;2022-12-18T06:12:49;28.73;;;5.60;;
2772;SDS011;1394;47.044;15.744;2022-12-18T06:15:18;28.93;;;4.83;;
2772;SDS011;1394;47.044;15.744;2022-12-18T06:17:45;29.67;;;6.37;;
2772;SDS011;1394;47.044;15.744;2022-12-18T06:20:12;28.57;;;5.70;;
2772;SDS011;1394;47.044;15.744;2022-12-18T06:22:39;28.00;;;5.80;;
2772;SDS011;1394;47.044;15.744;2022-12-18T06:25:07;29.10;;;5.70;;
2772;SDS011;1394;47.044;15.744;2022-12-18T06:27:34;29.07;;;5.20;;
2772;SDS011;1394;47.044;15.744;2022-12-18T06:30:02;29.03;;;5.83;;
2772;SDS011;1394;47.044;15.744;2022-12-18T06:32:31;28.33;;;5.70;;
2772;SDS011;1394;47.044;15.744;2022-12-18T06:34:59;29.17;;;5.80;;
2772;SDS011;1394;47.044;15.744;2022-12-18T06:37:27;28.80;;;5.60;;
2772;SDS011;1394;47.044;15.744;2022-12-18T06:39:54;28.27;;;5.63;;
2772;SDS011;1394;47.044;15.744;2022-12-18T06:42:22;28.37;;;5.00;;
2772;SDS011;1394;47.044;15.744;2022-12-18T06:44:50;27.90;;;4.90;;
2772;SDS011;1394;47.044;15.744;2022-12-18T06:47:17;27.50;;;4.83;;
2772;SDS011;1394;47.044;15.744;2022-12-18T06:49:47;28.37;;;4.90;;
2772;SDS011;1394;47.044;15.744;2022-12-18T06:52:15;28.10;;;4.50;;
2772;SDS011;1394;47.044;15.744;2022-12-18T06:54:42;27.00;;;4.20;;
2772;SDS011;1394;47.044;15.744;2022-12-18T06:57:09;27.03;;;4.40;;
2772;SDS011;1394;47.044;15.744;2022-12-18T06:59:37;26.40;;;3.47;;
2772;SDS011;1394;47.044;15.744;2022-12-18T07:02:04;26.50;;;3.80;;
2772;SDS011;1394;47.044;15.744;2022-12-18T07:04:31;27.00;;;3.90;;
2772;SDS011;1394;47.044;15.744;2022-12-18T07:07:00;26.10;;;3.27;;
2772;SDS011;1394;47.044;15.744;2022-12-18T07:09:27;27.00;;;3.43;;
2772;SDS011;1394;47.044;15.744;2022-12-18T07:11:54;26.77;;;3.77;;
2772;SDS011;1394;47.044;15.744;2022-12-18T07:14:21;26.93;;;3.37;;
2772;SDS011;1394;47.044;15.744;2022-12-18T07:16:49;26.87;;;3.90;;
2772;SDS011;1394;47.044;15.744;2022-12-18T07:19:16;26.30;;;3.40;;
2772;SDS011;1394;47.044;15.744;2022-12-18T07:21:44;26.67;;;4.03;;
2772;SDS011;1394;47.044;15.744;2022-12-18T07:24:12;26.57;;;3.77;;
2772;SDS011;1394;47.044;15.744;2022-12-18T07:26:40;26.80;;;4.00;;
2772;SDS011;1394;47.044;15.744;2022-12-18T07:29:07;27.90;;;4.90;;
2772;SDS011;1394;47.044;15.744;2022-12-18T07:31:34;26.53;;;3.90;;
2772;SDS011;1394;47.044;15.744;2022-12-18T07:34:01;27.00;;;4.10;;
2772;SDS011;1394;47.044;15.744;2022-12-18T07:36:29;27.80;;;4.33;;
2772;SDS011;1394;47.044;15.744;2022-12-18T07:38:56;28.00;;;3.90;;
2772;SDS011;1394;47.044;15.744;2022-12-18T07:41:25;26.83;;;4.20;;
2772;SDS011;1394;47.044;15.744;2022-12-18T07:43:52;27.00;;;3.30;;
2772;SDS011;1394;47.044;15.744;2022-12-18T07:46:19;27.70;;;4.10;;
2772;SDS011;1394;47.044;15.744;2022-12-18T07:48:46;26.50;;;3.50;;
2772;SDS011;1394;47.044;15.744;2022-12-18T07:51:14;26.90;;;3.57;;
2772;SDS011;1394;47.044;15.744;2022-12-18T07:53:41;27.10;;;3.80;;
2772;SDS011;1394;47.044;15.744;2022-12-18T07:56:10;26.07;;;3.10;;
2772;SDS011;1394;47.044;15.744;2022-12-18T07:58:39;25.40;;;2.80;;
2772;SDS011;1394;47.044;15.744;2022-12-18T08:01:06;26.20;;;3.40;;
2772;SDS011;1394;47.044;15.744;2022-12-18T08:03:34;26.20;;;3.00;;
2772;SDS011;1394;47.044;15.744;2022-12-18T08:06:01;25.87;;;3.00;;
2772;SDS011;1394;47.044;15.744;2022-12-18T08:08:29;42.53;;;15.40;;
2772;SDS011;1394;47.044;15.744;2022-12-18T08:10:56;31.40;;;6.50;;
2772;SDS011;1394;47.044;15.744;2022-12-18T08:13:24;27.90;;;5.00;;
2772;SDS011;1394;47.044;15.744;2022-12-18T08:15:59;26.67;;;3.90;;
2772;SDS011;1394;47.044;15.744;2022-12-18T08:18:26;25.90;;;2.97;;
2772;SDS011;1394;47.044;15.744;2022-12-18T08:20:54;25.83;;;3.40;;
2772;SDS011;1394;47.044;15.744;2022-12-18T08:23:22;26.90;;;3.77;;
2772;SDS011;1394;47.044;15.744;2022-12-18T08:25:49;26.53;;;3.20;;
2772;SDS011;1394;47.044;15.744;2022-12-18T08:28:16;25.80;;;3.00;;
2772;SDS011;1394;47.044;15.744;2022-12-18T08:30:46;26.93;;;3.10;;
2772;SDS011;1394;47.044;15.744;2022-12-18T08:33:19;27.13;;;3.20;;
2772;SDS011;1394;47.044;15.744;2022-12-18T08:35:46;25.50;;;3.20;;
2772;SDS011;1394;47.044;15.744;2022-12-18T08:38:14;27.67;;;3.50;;
2772;SDS011;1394;47.044;15.744;2022-12-18T08:40:42;26.30;;;3.53;;
2772;SDS011;1394;47.044;15.744;2022-12-18T08:43:09;27.07;;;3.50;;
2772;SDS011;1394;47.044;15.744;2022-12-18T08:45:54;26.70;;;3.30;;
2772;SDS011;1394;47.044;15.744;2022-12-18T08:48:23;26.77;;;3.73;;
2772;SDS011;1394;47.044;15.744;2022-12-18T08:50:53;27.87;;;4.27;;
2772;SDS011;1394;47.044;15.744;2022-12-18T08:53:21;27.63;;;4.43;;
2772;SDS011;1394;47.044;15.744;2022-12-18T08:55:49;29.03;;;5.17;;
2772;SDS011;1394;47.044;15.744;2022-12-18T08:58:16;27.90;;;4.77;;
2772;SDS011;1394;47.044;15.744;2022-12-18T09:00:44;28.00;;;4.57;;
2772;SDS011;1394;47.044;15.744;2022-12-18T09:03:11;27.77;;;4.57;;
2772;SDS011;1394;47.044;15.744;2022-12-18T09:05:40;28.40;;;5.37;;
2772;SDS011;1394;47.044;15.744;2022-12-18T09:08:07;29.10;;;5.10;;
2772;SDS011;1394;47.044;15.744;2022-12-18T09:10:40;28.90;;;5.53;;
2772;SDS011;1394;47.044;15.744;2022-12-18T09:13:09;30.60;;;6.87;;
2772;SDS011;1394;47.044;15.744;2022-12-18T09:15:40;30.50;;;5.93;;
2772;SDS011;1394;47.044;15.744;2022-12-18T09:18:08;30.40;;;7.10;;
2772;SDS011;1394;47.044;15.744;2022-12-18T09:20:36;29.30;;;6.00;;
2772;SDS011;1394;47.044;15.744;2022-12-18T09:23:05;29.87;;;5.80;;
2772;SDS011;1394;47.044;15.744;2022-12-18T09:25:34;29.90;;;5.57;;
2772;SDS011;1394;47.044;15.744;2022-12-18T09:28:04;30.63;;;6.33;;
2772;SDS011;1394;47.044;15.744;2022-12-18T09:30:31;29.70;;;6.00;;
2772;SDS011;1394;47.044;15.744;2022-12-18T09:32:59;30.17;;;6.33;;
2772;SDS011;1394;47.044;15.744;2022-12-18T09:35:26;29.87;;;6.63;;
2772;SDS011;1394;47.044;15.744;2022-12-18T09:37:54;31.83;;;8.10;;
2772;SDS011;1394;47.044;15.744;2022-12-18T09:40:23;34.17;;;8.70;;
2772;SDS011;1394;47.044;15.744;2022-12-18T09:42:52;34.63;;;10.07;;
2772;SDS011;1394;47.044;15.744;2022-12-18T09:45:21;30.87;;;7.30;;
2772;SDS011;1394;47.044;15.744;2022-12-18T09:47:48;30.90;;;7.60;;
2772;SDS011;1394;47.044;15.744;2022-12-18T09:50:20;31.10;;;7.73;;
2772;SDS011;1394;47.044;15.744;2022-12-18T09:52:49;28.87;;;6.20;;
2772;SDS011;1394;47.044;15.744;2022-12-18T09:55:24;31.80;;;8.13;;
2772;SDS011;1394;47.044;15.744;2022-12-18T09:57:54;31.20;;;8.00;;
2772;SDS011;1394;47.044;15.744;2022-12-18T10:00:23;33.40;;;8.23;;
2772;SDS011;1394;47.044;15.744;2022-12-18T10:02:51;32.57;;;8.40;;
2772;SDS011;1394;47.044;15.744;2022-12-18T10:05:20;30.27;;;6.60;;
2772;SDS011;1394;47.044;15.744;2022-12-18T10:07:53;31.90;;;7.53;;
2772;SDS011;1394;47.044;15.744;2022-12-18T10:10:29;31.33;;;7.40;;
2772;SDS011;1394;47.044;15.744;2022-12-18T10:13:01;30.40;;;6.70;;
2772;SDS011;1394;47.044;15.744;2022-12-18T10:15:30;28.87;;;5.73;;
2772;SDS011;1394;47.044;15.744;2022-12-18T10:18:01;31.67;;;7.63;;
2772;SDS011;1394;47.044;15.744;2022-12-18T10:20:34;32.50;;;7.30;;
2772;SDS011;1394;47.044;15.744;2022-12-18T10:23:05;29.90;;;6.80;;
2772;SDS011;1394;47.044;15.744;2022-12-18T10:25:38;30.37;;;6.67;;
2772;SDS011;1394;47.044;15.744;2022-12-18T10:28:08;33.20;;;8.10;;
2772;SDS011;1394;47.044;15.744;2022-12-18T10:30:37;30.67;;;7.27;;
2772;SDS011;1394;47.044;15.744;2022-12-18T10:33:08;30.53;;;6.70;;
2772;SDS011;1394;47.044;15.744;2022-12-18T10:35:37;33.90;;;7.70;;
2772;SDS011;1394;47.044;15.744;2022-12-18T10:38:20;30.17;;;6.90;;
2772;SDS011;1394;47.044;15.744;2022-12-18T10:40:50;31.80;;;7.50;;
2772;SDS011;1394;47.044;15.744;2022-12-18T10:43:19;30.53;;;7.20;;
2772;SDS011;1394;47.044;15.744;2022-12-18T10:48:34;31.87;;;8.23;;
2772;SDS011;1394;47.044;15.744;2022-12-18T10:51:03;31.53;;;7.90;;
2772;SDS011;1394;47.044;15.744;2022-12-18T10:53:31;31.67;;;8.00;;
2772;SDS011;1394;47.044;15.744;2022-12-18T10:56:02;31.87;;;8.23;;
2772;SDS011;1394;47.044;15.744;2022-12-18T10:58:30;31.40;;;7.87;;
2772;SDS011;1394;47.044;15.744;2022-12-18T11:01:05;32.23;;;8.10;;
2772;SDS011;1394;47.044;15.744;2022-12-18T11:03:35;32.70;;;8.80;;
2772;SDS011;1394;47.044;15.744;2022-12-18T11:06:03;33.90;;;8.93;;
2772;SDS011;1394;47.044;15.744;2022-12-18T11:08:31;33.10;;;8.47;;
2772;SDS011;1394;47.044;15.744;2022-12-18T11:10:58;32.50;;;8.47;;
2772;SDS011;1394;47.044;15.744;2022-12-18T11:13:29;30.60;;;7.23;;
2772;SDS011;1394;47.044;15.744;2022-12-18T11:15:58;31.57;;;7.40;;
2772;SDS011;1394;47.044;15.744;2022-12-18T11:18:26;32.30;;;8.20;;
2772;SDS011;1394;47.044;15.744;2022-12-18T11:20:54;32.63;;;9.20;;
2772;SDS011;1394;47.044;15.744;2022-12-18T11:23:22;32.13;;;8.37;;
2772;SDS011;1394;47.044;15.744;2022-12-18T11:25:50;32.87;;;8.80;;
2772;SDS011;1394;47.044;15.744;2022-12-18T11:28:28;32.30;;;7.47;;
2772;SDS011;1394;47.044;15.744;2022-12-18T11:31:16;30.70;;;7.50;;
2772;SDS011;1394;47.044;15.744;2022-12-18T11:33:44;30.37;;;6.60;;
2772;SDS011;1394;47.044;15.744;2022-12-18T11:36:13;30.80;;;7.70;;
2772;SDS011;1394;47.044;15.744;2022-12-18T11:38:41;29.70;;;6.00;;
2772;SDS011;1394;47.044;15.744;2022-12-18T11:41:13;31.40;;;6.90;;
2772;SDS011;1394;47.044;15.744;2022-12-18T11:43:45;31.87;;;8.10;;
2772;SDS011;1394;47.044;15.744;2022-12-18T11:46:17;29.77;;;6.63;;
2772;SDS011;1394;47.044;15.744;2022-12-18T11:48:46;31.83;;;7.40;;
2772;SDS011;1394;47.044;15.744;2022-12-18T11:51:16;31.10;;;7.40;;
2772;SDS011;1394;47.044;15.744;2022-12-18T11:53:44;30.40;;;7.13;;
2772;SDS011;1394;47.044;15.744;2022-12-18T11:56:17;31.83;;;8.27;;
2772;SDS011;1394;47.044;15.744;2022-12-18T11:58:57;32.03;;;7.50;;
2772;SDS011;1394;47.044;15.744;2022-12-18T12:01:31;30.30;;;6.83;;
2772;SDS011;1394;47.044;15.744;2022-12-18T12:06:45;30.40;;;6.50;;
2772;SDS011;1394;47.044;15.744;2022-12-18T12:09:17;30.33;;;6.30;;
2772;SDS011;1394;47.044;15.744;2022-12-18T12:11:54;29.40;;;6.20;;
2772;SDS011;1394;47.044;15.744;2022-12-18T12:14:32;31.23;;;6.57;;
2772;SDS011;1394;47.044;15.744;2022-12-18T12:17:08;30.63;;;7.43;;
2772;SDS011;1394;47.044;15.744;2022-12-18T12:19:41;30.60;;;7.43;;
2772;SDS011;1394;47.044;15.744;2022-12-18T12:22:13;31.27;;;7.53;;
2772;SDS011;1394;47.044;15.744;2022-12-18T12:24:45;29.47;;;6.57;;
2772;SDS011;1394;47.044;15.744;2022-12-18T12:27:17;31.83;;;8.63;;
2772;SDS011;1394;47.044;15.744;2022-12-18T12:29:49;31.80;;;7.93;;
2772;SDS011;1394;47.044;15.744;2022-12-18T12:32:28;30.50;;;6.90;;
2772;SDS011;1394;47.044;15.744;2022-12-18T12:35:01;29.27;;;6.43;;
2772;SDS011;1394;47.044;15.744;2022-12-18T12:37:33;30.50;;;7.37;;
2772;SDS011;1394;47.044;15.744;2022-12-18T12:40:05;30.17;;;7.37;;
2772;SDS011;1394;47.044;15.744;2022-12-18T12:42:33;30.03;;;6.43;;
2772;SDS011;1394;47.044;15.744;2022-12-18T12:45:22;31.00;;;7.70;;
2772;SDS011;1394;47.044;15.744;2022-12-18T12:47:55;30.73;;;6.87;;
2772;SDS011;1394;47.044;15.744;2022-12-18T12:50:24;29.17;;;6.10;;
2772;SDS011;1394;47.044;15.744;2022-12-18T12:52:53;30.10;;;6.30;;
2772;SDS011;1394;47.044;15.744;2022-12-18T12:55:22;30.03;;;6.73;;
2772;SDS011;1394;47.044;15.744;2022-12-18T12:57:54;30.03;;;7.17;;
2772;SDS011;1394;47.044;15.744;2022-12-18T13:00:25;30.33;;;6.90;;
2772;SDS011;1394;47.044;15.744;2022-12-18T13:02:55;30.53;;;7.10;;
2772;SDS011;1394;47.044;15.744;2022-12-18T13:05:25;31.10;;;6.80;;
2772;SDS011;1394;47.044;15.744;2022-12-18T13:07:56;30.07;;;7.00;;
2772;SDS011;1394;47.044;15.744;2022-12-18T13:10:26;30.67;;;7.07;;
2772;SDS011;1394;47.044;15.744;2022-12-18T13:12:55;31.37;;;7.93;;
2772;SDS011;1394;47.044;15.744;2022-12-18T13:15:23;31.40;;;7.83;;
2772;SDS011;1394;47.044;15.744;2022-12-18T13:18:04;31.50;;;8.30;;
2772;SDS011;1394;47.044;15.744;2022-12-18T13:20:33;31.80;;;8.73;;
2772;SDS011;1394;47.044;15.744;2022-12-18T13:23:01;31.60;;;7.67;;
2772;SDS011;1394;47.044;15.744;2022-12-18T13:25:32;30.67;;;7.30;;
2772;SDS011;1394;47.044;15.744;2022-12-18T13:28:05;30.30;;;7.37;;
2772;SDS011;1394;47.044;15.744;2022-12-18T13:30:44;31.30;;;8.20;;
2772;SDS011;1394;47.044;15.744;2022-12-18T13:36:01;29.70;;;7.13;;
2772;SDS011;1394;47.044;15.744;2022-12-18T13:38:33;29.83;;;6.43;;
2772;SDS011;1394;47.044;15.744;2022-12-18T13:41:01;29.77;;;7.00;;
2772;SDS011;1394;47.044;15.744;2022-12-18T13:43:30;30.60;;;7.60;;
2772;SDS011;1394;47.044;15.744;2022-12-18T13:45:59;32.83;;;9.77;;
2772;SDS011;1394;47.044;15.744;2022-12-18T13:48:27;33.50;;;9.07;;
2772;SDS011;1394;47.044;15.744;2022-12-18T13:50:57;33.20;;;9.27;;
2772;SDS011;1394;47.044;15.744;2022-12-18T13:53:28;32.67;;;9.00;;
2772;SDS011;1394;47.044;15.744;2022-12-18T13:55:56;33.17;;;9.50;;
2772;SDS011;1394;47.044;15.744;2022-12-18T13:58:24;30.70;;;8.00;;
2772;SDS011;1394;47.044;15.744;2022-12-18T14:00:51;30.97;;;8.33;;
2772;SDS011;1394;47.044;15.744;2022-12-18T14:03:23;30.50;;;7.70;;
2772;SDS011;1394;47.044;15.744;2022-12-18T14:05:53;30.30;;;6.97;;
2772;SDS011;1394;47.044;15.744;2022-12-18T14:08:21;29.20;;;6.20;;
2772;SDS011;1394;47.044;15.744;2022-12-18T14:10:52;31.20;;;7.47;;
2772;SDS011;1394;47.044;15.744;2022-12-18T14:13:21;30.57;;;7.90;;
2772;SDS011;1394;47.044;15.744;2022-12-18T14:15:50;33.13;;;7.87;;
2772;SDS011;1394;47.044;15.744;2022-12-18T14:18:19;32.13;;;7.50;;
2772;SDS011;1394;47.044;15.744;2022-12-18T14:20:48;30.60;;;7.53;;
2772;SDS011;1394;47.044;15.744;2022-12-18T14:23:29;31.10;;;7.30;;
2772;SDS011;1394;47.044;15.744;2022-12-18T14:25:59;31.87;;;9.17;;
2772;SDS011;1394;47.044;15.744;2022-12-18T14:28:26;32.40;;;9.27;;
2772;SDS011;1394;47.044;15.744;2022-12-18T14:30:54;33.27;;;9.40;;
2772;SDS011;1394;47.044;15.744;2022-12-18T14:33:22;32.80;;;9.13;;
2772;SDS011;1394;47.044;15.744;2022-12-18T14:35:55;32.00;;;8.30;;
2772;SDS011;1394;47.044;15.744;2022-12-18T14:38:24;32.00;;;8.60;;
2772;SDS011;1394;47.044;15.744;2022-12-18T14:40:52;32.60;;;8.70;;
2772;SDS011;1394;47.044;15.744;2022-12-18T14:43:21;32.40;;;9.47;;
2772;SDS011;1394;47.044;15.744;2022-12-18T14:45:48;30.83;;;7.50;;
2772;SDS011;1394;47.044;15.744;2022-12-18T14:48:16;32.00;;;9.00;;
2772;SDS011;1394;47.044;15.744;2022-12-18T14:50:44;30.97;;;8.77;;
2772;SDS011;1394;47.044;15.744;2022-12-18T14:53:18;32.83;;;8.33;;
2772;SDS011;1394;47.044;15.744;2022-12-18T14:55:47;30.90;;;8.03;;
2772;SDS011;1394;47.044;15.744;2022-12-18T14:58:15;33.50;;;9.00;;
2772;SDS011;1394;47.044;15.744;2022-12-18T15:00:44;31.43;;;8.00;;
2772;SDS011;1394;47.044;15.744;2022-12-18T15:03:12;32.67;;;9.13;;
2772;SDS011;1394;47.044;15.744;2022-12-18T15:05:41;31.17;;;7.70;;
2772;SDS011;1394;47.044;15.744;2022-12-18T15:10:50;32.23;;;8.93;;
2772;SDS011;1394;47.044;15.744;2022-12-18T15:13:20;32.13;;;8.50;;